sensor_id;sensor_type;location;lat;lon;timestamp;temperature;humidity
65048;DHT22;52089;51.362;-2.384;2022-11-15T00:03:25;10.60;99.90
65048;DHT22;52089;51.362;-2.384;2022-11-15T00:07:07;10.70;99.90
65048;DHT22;52089;51.362;-2.384;2022-11-15T00:11:00;10.80;99.90
65048;DHT22;52089;51.362;-2.384;2022-11-15T00:14:42;10.80;99.90
65048;DHT22;52089;51.362;-2.384;2022-11-15T00:18:24;10.90;99.90
65048;DHT22;52089;51.362;-2.384;2022-11-15T00:22:06;10.90;99.90
65048;DHT22;52089;51.362;-2.384;2022-11-15T00:25:55;11.00;99.90
65048;DHT22;52089;51.362;-2.384;2022-11-15T00:29:37;11.10;99.90
65048;DHT22;52089;51.362;-2.384;2022-11-15T00:33:20;11.20;99.90
65048;DHT22;52089;51.362;-2.384;2022-11-15T00:37:01;11.20;99.90
65048;DHT22;52089;51.362;-2.384;2022-11-15T00:40:43;11.20;99.90
65048;DHT22;52089;51.362;-2.384;2022-11-15T00:44:25;11.20;99.90
65048;DHT22;52089;51.362;-2.384;2022-11-15T00:48:07;11.20;99.90
65048;DHT22;52089;51.362;-2.384;2022-11-15T00:51:49;11.20;99.90
65048;DHT22;52089;51.362;-2.384;2022-11-15T00:55:30;11.30;99.90
65048;DHT22;52089;51.362;-2.384;2022-11-15T00:59:12;11.30;99.90
65048;DHT22;52089;51.362;-2.384;2022-11-15T01:02:54;11.40;99.90
65048;DHT22;52089;51.362;-2.384;2022-11-15T01:06:36;11.40;99.90
65048;DHT22;52089;51.362;-2.384;2022-11-15T01:10:18;11.50;99.90
65048;DHT22;52089;51.362;-2.384;2022-11-15T01:13:59;11.60;99.90
65048;DHT22;52089;51.362;-2.384;2022-11-15T01:17:41;11.70;99.90
65048;DHT22;52089;51.362;-2.384;2022-11-15T01:21:23;11.70;99.90
65048;DHT22;52089;51.362;-2.384;2022-11-15T01:25:05;11.70;99.90
65048;DHT22;52089;51.362;-2.384;2022-11-15T01:28:47;11.80;99.90
65048;DHT22;52089;51.362;-2.384;2022-11-15T01:32:28;11.80;99.90
65048;DHT22;52089;51.362;-2.384;2022-11-15T01:36:19;11.90;99.90
65048;DHT22;52089;51.362;-2.384;2022-11-15T01:40:03;11.80;99.90
65048;DHT22;52089;51.362;-2.384;2022-11-15T01:43:49;11.80;99.90
65048;DHT22;52089;51.362;-2.384;2022-11-15T01:47:35;11.90;99.90
65048;DHT22;52089;51.362;-2.384;2022-11-15T01:51:19;11.80;99.90
65048;DHT22;52089;51.362;-2.384;2022-11-15T01:55:15;11.80;99.90
65048;DHT22;52089;51.362;-2.384;2022-11-15T01:58:59;11.80;99.90
65048;DHT22;52089;51.362;-2.384;2022-11-15T02:02:44;11.80;99.90
65048;DHT22;52089;51.362;-2.384;2022-11-15T02:06:26;11.70;99.90
65048;DHT22;52089;51.362;-2.384;2022-11-15T02:10:14;11.70;99.90
65048;DHT22;52089;51.362;-2.384;2022-11-15T02:13:56;11.70;99.90
65048;DHT22;52089;51.362;-2.384;2022-11-15T02:21:53;11.60;99.90
65048;DHT22;52089;51.362;-2.384;2022-11-15T02:30:23;11.60;99.90
65048;DHT22;52089;51.362;-2.384;2022-11-15T02:42:02;11.40;99.90
65048;DHT22;52089;51.362;-2.384;2022-11-15T02:45:50;11.40;99.90
65048;DHT22;52089;51.362;-2.384;2022-11-15T02:49:34;11.40;99.90
65048;DHT22;52089;51.362;-2.384;2022-11-15T02:53:16;11.40;99.90
65048;DHT22;52089;51.362;-2.384;2022-11-15T02:57:05;11.40;99.90
65048;DHT22;52089;51.362;-2.384;2022-11-15T03:05:46;11.30;99.90
65048;DHT22;52089;51.362;-2.384;2022-11-15T03:13:24;11.20;99.90
65048;DHT22;52089;51.362;-2.384;2022-11-15T03:17:22;11.20;99.90
65048;DHT22;52089;51.362;-2.384;2022-11-15T03:21:08;11.20;99.90
65048;DHT22;52089;51.362;-2.384;2022-11-15T03:24:53;11.20;99.90
65048;DHT22;52089;51.362;-2.384;2022-11-15T03:29:01;11.20;99.90
65048;DHT22;52089;51.362;-2.384;2022-11-15T03:32:56;11.20;99.90
65048;DHT22;52089;51.362;-2.384;2022-11-15T03:36:39;11.20;99.90
65048;DHT22;52089;51.362;-2.384;2022-11-15T03:40:30;11.20;99.90
65048;DHT22;52089;51.362;-2.384;2022-11-15T03:44:19;11.20;99.90
65048;DHT22;52089;51.362;-2.384;2022-11-15T03:48:12;11.20;99.90
65048;DHT22;52089;51.362;-2.384;2022-11-15T03:51:57;11.20;99.90
65048;DHT22;52089;51.362;-2.384;2022-11-15T03:55:39;11.20;99.90
65048;DHT22;52089;51.362;-2.384;2022-11-15T03:59:21;11.20;99.90
65048;DHT22;52089;51.362;-2.384;2022-11-15T04:03:03;11.20;99.90
65048;DHT22;52089;51.362;-2.384;2022-11-15T04:06:45;11.20;99.90
65048;DHT22;52089;51.362;-2.384;2022-11-15T04:10:27;11.20;99.90
65048;DHT22;52089;51.362;-2.384;2022-11-15T04:14:09;11.30;99.90
65048;DHT22;52089;51.362;-2.384;2022-11-15T04:17:53;11.30;99.90
65048;DHT22;52089;51.362;-2.384;2022-11-15T04:21:35;11.30;99.90
65048;DHT22;52089;51.362;-2.384;2022-11-15T04:25:36;11.30;99.90
65048;DHT22;52089;51.362;-2.384;2022-11-15T04:29:18;11.30;99.90
65048;DHT22;52089;51.362;-2.384;2022-11-15T04:33:18;11.40;99.90
65048;DHT22;52089;51.362;-2.384;2022-11-15T04:37:00;11.40;99.90
65048;DHT22;52089;51.362;-2.384;2022-11-15T04:40:53;11.40;99.90
65048;DHT22;52089;51.362;-2.384;2022-11-15T04:44:35;11.40;99.90
65048;DHT22;52089;51.362;-2.384;2022-11-15T04:48:17;11.50;99.90
65048;DHT22;52089;51.362;-2.384;2022-11-15T04:52:00;11.40;99.90
65048;DHT22;52089;51.362;-2.384;2022-11-15T04:55:45;11.40;99.90
65048;DHT22;52089;51.362;-2.384;2022-11-15T04:59:27;11.40;99.90
65048;DHT22;52089;51.362;-2.384;2022-11-15T05:03:09;11.40;99.90
65048;DHT22;52089;51.362;-2.384;2022-11-15T05:07:10;11.50;99.90
65048;DHT22;52089;51.362;-2.384;2022-11-15T05:10:51;11.50;99.90
65048;DHT22;52089;51.362;-2.384;2022-11-15T05:14:33;11.50;99.90
65048;DHT22;52089;51.362;-2.384;2022-11-15T05:18:15;11.50;99.90
65048;DHT22;52089;51.362;-2.384;2022-11-15T05:22:03;11.50;99.90
65048;DHT22;52089;51.362;-2.384;2022-11-15T05:25:45;11.50;99.90
65048;DHT22;52089;51.362;-2.384;2022-11-15T05:29:27;11.50;99.90
65048;DHT22;52089;51.362;-2.384;2022-11-15T05:33:09;11.60;99.90
65048;DHT22;52089;51.362;-2.384;2022-11-15T05:36:51;11.60;99.90
65048;DHT22;52089;51.362;-2.384;2022-11-15T05:40:33;11.60;99.90
65048;DHT22;52089;51.362;-2.384;2022-11-15T05:44:19;11.60;99.90
65048;DHT22;52089;51.362;-2.384;2022-11-15T05:48:06;11.60;99.90
65048;DHT22;52089;51.362;-2.384;2022-11-15T05:51:51;11.60;99.90
65048;DHT22;52089;51.362;-2.384;2022-11-15T05:55:33;11.60;99.90
65048;DHT22;52089;51.362;-2.384;2022-11-15T05:59:16;11.60;99.90
65048;DHT22;52089;51.362;-2.384;2022-11-15T06:02:58;11.60;99.90
65048;DHT22;52089;51.362;-2.384;2022-11-15T06:06:40;11.70;99.90
65048;DHT22;52089;51.362;-2.384;2022-11-15T06:10:22;11.70;99.90
65048;DHT22;52089;51.362;-2.384;2022-11-15T06:14:04;11.70;99.90
65048;DHT22;52089;51.362;-2.384;2022-11-15T06:17:45;11.70;99.90
65048;DHT22;52089;51.362;-2.384;2022-11-15T06:21:27;11.70;99.90
65048;DHT22;52089;51.362;-2.384;2022-11-15T06:25:10;11.70;99.90
65048;DHT22;52089;51.362;-2.384;2022-11-15T06:28:52;11.70;99.90
65048;DHT22;52089;51.362;-2.384;2022-11-15T06:32:36;11.80;99.90
65048;DHT22;52089;51.362;-2.384;2022-11-15T06:36:18;11.70;99.90
65048;DHT22;52089;51.362;-2.384;2022-11-15T06:40:00;11.70;99.90
65048;DHT22;52089;51.362;-2.384;2022-11-15T06:43:42;11.80;99.90
65048;DHT22;52089;51.362;-2.384;2022-11-15T06:47:24;11.80;99.90
65048;DHT22;52089;51.362;-2.384;2022-11-15T06:51:06;11.80;99.90
65048;DHT22;52089;51.362;-2.384;2022-11-15T06:54:49;11.80;99.90
65048;DHT22;52089;51.362;-2.384;2022-11-15T06:58:31;11.90;99.90
65048;DHT22;52089;51.362;-2.384;2022-11-15T07:02:13;11.90;99.90
65048;DHT22;52089;51.362;-2.384;2022-11-15T07:05:56;12.00;99.90
65048;DHT22;52089;51.362;-2.384;2022-11-15T07:09:47;12.00;99.90
65048;DHT22;52089;51.362;-2.384;2022-11-15T07:13:30;12.00;99.90
65048;DHT22;52089;51.362;-2.384;2022-11-15T07:17:15;12.10;99.90
65048;DHT22;52089;51.362;-2.384;2022-11-15T07:21:03;12.10;99.90
65048;DHT22;52089;51.362;-2.384;2022-11-15T07:24:46;12.20;99.90
65048;DHT22;52089;51.362;-2.384;2022-11-15T07:28:28;12.20;99.90
65048;DHT22;52089;51.362;-2.384;2022-11-15T07:32:10;12.20;99.90
65048;DHT22;52089;51.362;-2.384;2022-11-15T07:35:52;12.20;99.90
65048;DHT22;52089;51.362;-2.384;2022-11-15T07:39:33;12.20;99.90
65048;DHT22;52089;51.362;-2.384;2022-11-15T07:43:15;12.20;99.90
65048;DHT22;52089;51.362;-2.384;2022-11-15T07:46:57;12.30;99.90
65048;DHT22;52089;51.362;-2.384;2022-11-15T07:50:42;12.30;99.90
65048;DHT22;52089;51.362;-2.384;2022-11-15T07:54:24;12.30;99.90
65048;DHT22;52089;51.362;-2.384;2022-11-15T07:58:10;12.30;99.90
65048;DHT22;52089;51.362;-2.384;2022-11-15T08:01:52;12.30;99.90
65048;DHT22;52089;51.362;-2.384;2022-11-15T08:05:35;12.30;99.90
65048;DHT22;52089;51.362;-2.384;2022-11-15T08:09:17;12.30;99.90
65048;DHT22;52089;51.362;-2.384;2022-11-15T08:13:05;12.40;99.90
65048;DHT22;52089;51.362;-2.384;2022-11-15T08:16:47;12.40;99.90
65048;DHT22;52089;51.362;-2.384;2022-11-15T08:20:29;12.40;99.90
65048;DHT22;52089;51.362;-2.384;2022-11-15T08:24:11;12.40;99.90
65048;DHT22;52089;51.362;-2.384;2022-11-15T08:27:55;12.40;99.90
65048;DHT22;52089;51.362;-2.384;2022-11-15T08:31:37;12.40;99.90
65048;DHT22;52089;51.362;-2.384;2022-11-15T08:35:20;12.50;99.90
65048;DHT22;52089;51.362;-2.384;2022-11-15T08:39:12;12.50;99.90
65048;DHT22;52089;51.362;-2.384;2022-11-15T08:42:54;12.50;99.90
65048;DHT22;52089;51.362;-2.384;2022-11-15T08:46:36;12.50;99.90
65048;DHT22;52089;51.362;-2.384;2022-11-15T08:50:18;12.50;99.90
65048;DHT22;52089;51.362;-2.384;2022-11-15T08:54:00;12.60;99.90
65048;DHT22;52089;51.362;-2.384;2022-11-15T08:57:41;12.60;99.90
65048;DHT22;52089;51.362;-2.384;2022-11-15T09:01:23;12.60;99.90
65048;DHT22;52089;51.362;-2.384;2022-11-15T09:05:06;12.60;99.90
65048;DHT22;52089;51.362;-2.384;2022-11-15T09:08:48;12.70;99.90
65048;DHT22;52089;51.362;-2.384;2022-11-15T09:12:30;12.70;99.90
65048;DHT22;52089;51.362;-2.384;2022-11-15T09:16:12;12.70;99.90
65048;DHT22;52089;51.362;-2.384;2022-11-15T09:19:54;12.70;99.90
65048;DHT22;52089;51.362;-2.384;2022-11-15T09:23:37;12.70;99.90
65048;DHT22;52089;51.362;-2.384;2022-11-15T09:27:20;12.70;99.90
65048;DHT22;52089;51.362;-2.384;2022-11-15T09:31:04;12.80;99.90
65048;DHT22;52089;51.362;-2.384;2022-11-15T09:34:46;12.80;99.90
65048;DHT22;52089;51.362;-2.384;2022-11-15T09:38:28;12.60;99.90
65048;DHT22;52089;51.362;-2.384;2022-11-15T09:42:37;12.40;99.90
65048;DHT22;52089;51.362;-2.384;2022-11-15T10:02:37;11.50;99.90
65048;DHT22;52089;51.362;-2.384;2022-11-15T10:06:26;11.40;99.90
65048;DHT22;52089;51.362;-2.384;2022-11-15T10:14:18;11.30;99.90
65048;DHT22;52089;51.362;-2.384;2022-11-15T10:18:12;11.20;99.90
65048;DHT22;52089;51.362;-2.384;2022-11-15T10:25:59;11.10;99.90
65048;DHT22;52089;51.362;-2.384;2022-11-15T10:29:49;11.10;99.90
65048;DHT22;52089;51.362;-2.384;2022-11-15T10:33:38;11.00;99.90
65048;DHT22;52089;51.362;-2.384;2022-11-15T10:37:31;10.90;99.90
65048;DHT22;52089;51.362;-2.384;2022-11-15T10:41:13;10.90;99.90
65048;DHT22;52089;51.362;-2.384;2022-11-15T10:44:55;10.90;99.90
65048;DHT22;52089;51.362;-2.384;2022-11-15T10:48:37;11.00;99.90
65048;DHT22;52089;51.362;-2.384;2022-11-15T10:52:20;11.00;99.90
65048;DHT22;52089;51.362;-2.384;2022-11-15T10:56:08;11.00;99.90
65048;DHT22;52089;51.362;-2.384;2022-11-15T10:59:56;11.00;99.90
65048;DHT22;52089;51.362;-2.384;2022-11-15T11:03:40;11.10;99.90
65048;DHT22;52089;51.362;-2.384;2022-11-15T11:07:30;11.10;99.90
65048;DHT22;52089;51.362;-2.384;2022-11-15T11:11:13;11.00;99.90
65048;DHT22;52089;51.362;-2.384;2022-11-15T11:14:54;11.20;99.90
65048;DHT22;52089;51.362;-2.384;2022-11-15T11:47:31;12.40;99.90
65048;DHT22;52089;51.362;-2.384;2022-11-15T11:51:24;13.30;99.90
65048;DHT22;52089;51.362;-2.384;2022-11-15T11:55:27;13.80;99.90
65048;DHT22;52089;51.362;-2.384;2022-11-15T12:10:33;14.50;99.90
65048;DHT22;52089;51.362;-2.384;2022-11-15T12:14:47;14.50;99.90
65048;DHT22;52089;51.362;-2.384;2022-11-15T12:18:30;14.40;99.90
65048;DHT22;52089;51.362;-2.384;2022-11-15T12:22:22;14.40;99.90
65048;DHT22;52089;51.362;-2.384;2022-11-15T12:26:11;14.20;99.90
65048;DHT22;52089;51.362;-2.384;2022-11-15T12:29:59;14.30;99.90
65048;DHT22;52089;51.362;-2.384;2022-11-15T12:33:45;14.20;99.90
65048;DHT22;52089;51.362;-2.384;2022-11-15T12:45:29;13.40;99.90
65048;DHT22;52089;51.362;-2.384;2022-11-15T13:00:48;12.90;99.90
65048;DHT22;52089;51.362;-2.384;2022-11-15T13:04:30;12.70;99.90
65048;DHT22;52089;51.362;-2.384;2022-11-15T13:08:40;12.70;99.90
65048;DHT22;52089;51.362;-2.384;2022-11-15T13:16:05;12.80;99.90
65048;DHT22;52089;51.362;-2.384;2022-11-15T13:23:34;13.20;99.90
65048;DHT22;52089;51.362;-2.384;2022-11-15T13:27:18;13.20;99.90
65048;DHT22;52089;51.362;-2.384;2022-11-15T13:31:26;13.10;99.90
65048;DHT22;52089;51.362;-2.384;2022-11-15T13:35:08;13.00;99.90
65048;DHT22;52089;51.362;-2.384;2022-11-15T13:39:06;13.00;99.90
65048;DHT22;52089;51.362;-2.384;2022-11-15T13:42:54;12.90;99.90
65048;DHT22;52089;51.362;-2.384;2022-11-15T13:46:36;12.80;99.90
65048;DHT22;52089;51.362;-2.384;2022-11-15T13:50:21;12.80;99.90
65048;DHT22;52089;51.362;-2.384;2022-11-15T13:54:07;13.00;99.90
65048;DHT22;52089;51.362;-2.384;2022-11-15T13:57:53;12.90;99.90
65048;DHT22;52089;51.362;-2.384;2022-11-15T14:01:35;12.90;99.90
65048;DHT22;52089;51.362;-2.384;2022-11-15T14:05:26;12.90;99.90
65048;DHT22;52089;51.362;-2.384;2022-11-15T14:12:52;12.90;99.90
65048;DHT22;52089;51.362;-2.384;2022-11-15T14:16:46;12.80;99.90
65048;DHT22;52089;51.362;-2.384;2022-11-15T14:20:37;12.80;99.90
65048;DHT22;52089;51.362;-2.384;2022-11-15T14:24:21;12.80;99.90
65048;DHT22;52089;51.362;-2.384;2022-11-15T14:32:25;13.50;99.90
65048;DHT22;52089;51.362;-2.384;2022-11-15T14:39:55;14.50;99.90
65048;DHT22;52089;51.362;-2.384;2022-11-15T14:43:36;14.20;99.90
65048;DHT22;52089;51.362;-2.384;2022-11-15T14:47:18;13.80;99.90
65048;DHT22;52089;51.362;-2.384;2022-11-15T14:51:00;13.30;99.90
65048;DHT22;52089;51.362;-2.384;2022-11-15T14:54:42;13.00;99.90
65048;DHT22;52089;51.362;-2.384;2022-11-15T14:58:23;12.60;99.90
65048;DHT22;52089;51.362;-2.384;2022-11-15T15:02:16;12.30;99.90
65048;DHT22;52089;51.362;-2.384;2022-11-15T15:05:59;12.00;99.90
65048;DHT22;52089;51.362;-2.384;2022-11-15T15:09:41;11.80;99.90
65048;DHT22;52089;51.362;-2.384;2022-11-15T15:13:23;11.70;99.90
65048;DHT22;52089;51.362;-2.384;2022-11-15T15:17:05;11.60;99.90
65048;DHT22;52089;51.362;-2.384;2022-11-15T15:20:57;11.60;99.90
65048;DHT22;52089;51.362;-2.384;2022-11-15T15:24:43;11.40;99.90
65048;DHT22;52089;51.362;-2.384;2022-11-15T15:28:24;11.20;99.90
65048;DHT22;52089;51.362;-2.384;2022-11-15T15:32:14;11.00;99.90
65048;DHT22;52089;51.362;-2.384;2022-11-15T15:35:56;10.90;99.90
65048;DHT22;52089;51.362;-2.384;2022-11-15T15:39:38;10.80;99.90
65048;DHT22;52089;51.362;-2.384;2022-11-15T15:43:20;10.70;99.90
65048;DHT22;52089;51.362;-2.384;2022-11-15T15:47:02;10.60;99.90
65048;DHT22;52089;51.362;-2.384;2022-11-15T15:50:44;10.50;99.90
65048;DHT22;52089;51.362;-2.384;2022-11-15T15:54:26;10.40;99.90
65048;DHT22;52089;51.362;-2.384;2022-11-15T15:58:08;10.40;99.90
65048;DHT22;52089;51.362;-2.384;2022-11-15T16:01:50;10.30;99.90
65048;DHT22;52089;51.362;-2.384;2022-11-15T16:05:32;10.30;99.90
65048;DHT22;52089;51.362;-2.384;2022-11-15T16:09:15;10.30;99.90
65048;DHT22;52089;51.362;-2.384;2022-11-15T16:12:58;10.20;99.90
65048;DHT22;52089;51.362;-2.384;2022-11-15T16:16:40;10.20;99.90
65048;DHT22;52089;51.362;-2.384;2022-11-15T16:24:16;10.10;99.90
65048;DHT22;52089;51.362;-2.384;2022-11-15T16:27:58;10.00;99.90
65048;DHT22;52089;51.362;-2.384;2022-11-15T16:31:40;9.90;99.90
65048;DHT22;52089;51.362;-2.384;2022-11-15T16:35:21;9.80;99.90
65048;DHT22;52089;51.362;-2.384;2022-11-15T16:39:03;9.70;99.90
65048;DHT22;52089;51.362;-2.384;2022-11-15T16:42:48;9.50;99.90
65048;DHT22;52089;51.362;-2.384;2022-11-15T16:46:29;9.40;99.90
65048;DHT22;52089;51.362;-2.384;2022-11-15T16:50:22;9.30;99.90
65048;DHT22;52089;51.362;-2.384;2022-11-15T16:54:05;9.20;99.90
65048;DHT22;52089;51.362;-2.384;2022-11-15T16:57:47;9.10;99.90
65048;DHT22;52089;51.362;-2.384;2022-11-15T17:01:34;9.10;99.90
65048;DHT22;52089;51.362;-2.384;2022-11-15T17:05:21;9.00;99.90
65048;DHT22;52089;51.362;-2.384;2022-11-15T17:09:03;8.90;99.90
65048;DHT22;52089;51.362;-2.384;2022-11-15T17:12:44;8.80;99.90
65048;DHT22;52089;51.362;-2.384;2022-11-15T17:16:26;8.70;99.90
65048;DHT22;52089;51.362;-2.384;2022-11-15T17:20:18;8.60;99.90
65048;DHT22;52089;51.362;-2.384;2022-11-15T17:24:00;8.60;99.90
65048;DHT22;52089;51.362;-2.384;2022-11-15T17:27:42;8.60;99.90
65048;DHT22;52089;51.362;-2.384;2022-11-15T17:31:24;8.60;99.90
65048;DHT22;52089;51.362;-2.384;2022-11-15T17:35:06;8.50;99.90
65048;DHT22;52089;51.362;-2.384;2022-11-15T17:38:55;8.50;99.90
65048;DHT22;52089;51.362;-2.384;2022-11-15T17:42:40;8.50;99.90
65048;DHT22;52089;51.362;-2.384;2022-11-15T17:46:22;8.40;99.90
65048;DHT22;52089;51.362;-2.384;2022-11-15T17:50:04;8.30;99.90
65048;DHT22;52089;51.362;-2.384;2022-11-15T17:53:47;8.30;99.90
65048;DHT22;52089;51.362;-2.384;2022-11-15T17:57:29;8.20;99.90
65048;DHT22;52089;51.362;-2.384;2022-11-15T18:01:20;8.20;99.90
65048;DHT22;52089;51.362;-2.384;2022-11-15T18:05:02;8.20;99.90
65048;DHT22;52089;51.362;-2.384;2022-11-15T18:08:48;8.20;99.90
65048;DHT22;52089;51.362;-2.384;2022-11-15T18:12:30;8.10;99.90
65048;DHT22;52089;51.362;-2.384;2022-11-15T18:16:17;8.10;99.90
65048;DHT22;52089;51.362;-2.384;2022-11-15T18:19:59;8.10;99.90
65048;DHT22;52089;51.362;-2.384;2022-11-15T18:23:42;8.20;99.90
65048;DHT22;52089;51.362;-2.384;2022-11-15T18:27:24;8.10;99.90
65048;DHT22;52089;51.362;-2.384;2022-11-15T18:31:17;8.10;99.90
65048;DHT22;52089;51.362;-2.384;2022-11-15T18:34:59;8.00;99.90
65048;DHT22;52089;51.362;-2.384;2022-11-15T18:38:41;8.10;99.90
65048;DHT22;52089;51.362;-2.384;2022-11-15T18:42:23;8.00;99.90
65048;DHT22;52089;51.362;-2.384;2022-11-15T18:46:13;8.00;99.90
65048;DHT22;52089;51.362;-2.384;2022-11-15T18:49:55;8.00;99.90
65048;DHT22;52089;51.362;-2.384;2022-11-15T18:53:41;7.90;99.90
65048;DHT22;52089;51.362;-2.384;2022-11-15T18:57:23;7.90;99.90
65048;DHT22;52089;51.362;-2.384;2022-11-15T19:01:08;7.90;99.90
65048;DHT22;52089;51.362;-2.384;2022-11-15T19:04:50;7.90;99.90
65048;DHT22;52089;51.362;-2.384;2022-11-15T19:08:33;7.90;99.90
65048;DHT22;52089;51.362;-2.384;2022-11-15T19:12:16;7.90;99.90
65048;DHT22;52089;51.362;-2.384;2022-11-15T19:15:59;7.80;99.90
65048;DHT22;52089;51.362;-2.384;2022-11-15T19:19:41;7.80;99.90
65048;DHT22;52089;51.362;-2.384;2022-11-15T19:23:23;7.80;99.90
65048;DHT22;52089;51.362;-2.384;2022-11-15T19:27:04;7.80;99.90
65048;DHT22;52089;51.362;-2.384;2022-11-15T19:30:46;7.70;99.90
65048;DHT22;52089;51.362;-2.384;2022-11-15T19:34:28;7.70;99.90
65048;DHT22;52089;51.362;-2.384;2022-11-15T19:38:10;7.60;99.90
65048;DHT22;52089;51.362;-2.384;2022-11-15T19:41:52;7.60;99.90
65048;DHT22;52089;51.362;-2.384;2022-11-15T19:45:34;7.60;99.90
65048;DHT22;52089;51.362;-2.384;2022-11-15T19:49:15;7.50;99.90
65048;DHT22;52089;51.362;-2.384;2022-11-15T19:52:57;7.50;99.90
65048;DHT22;52089;51.362;-2.384;2022-11-15T19:56:39;7.40;99.90
65048;DHT22;52089;51.362;-2.384;2022-11-15T20:00:21;7.40;99.90
65048;DHT22;52089;51.362;-2.384;2022-11-15T20:04:03;7.40;99.90
65048;DHT22;52089;51.362;-2.384;2022-11-15T20:07:47;7.30;99.90
65048;DHT22;52089;51.362;-2.384;2022-11-15T20:11:29;7.30;99.90
65048;DHT22;52089;51.362;-2.384;2022-11-15T20:15:11;7.30;99.90
65048;DHT22;52089;51.362;-2.384;2022-11-15T20:18:53;7.30;99.90
65048;DHT22;52089;51.362;-2.384;2022-11-15T20:22:34;7.20;99.90
65048;DHT22;52089;51.362;-2.384;2022-11-15T20:26:19;7.20;99.90
65048;DHT22;52089;51.362;-2.384;2022-11-15T20:30:02;7.30;99.90
65048;DHT22;52089;51.362;-2.384;2022-11-15T20:33:45;7.20;99.90
65048;DHT22;52089;51.362;-2.384;2022-11-15T20:37:27;7.20;99.90
65048;DHT22;52089;51.362;-2.384;2022-11-15T20:41:09;7.30;99.90
65048;DHT22;52089;51.362;-2.384;2022-11-15T20:44:50;7.30;99.90
65048;DHT22;52089;51.362;-2.384;2022-11-15T20:48:32;7.20;99.90
65048;DHT22;52089;51.362;-2.384;2022-11-15T20:52:15;7.30;99.90
65048;DHT22;52089;51.362;-2.384;2022-11-15T20:56:04;7.20;99.90
65048;DHT22;52089;51.362;-2.384;2022-11-15T20:59:48;7.30;99.90
65048;DHT22;52089;51.362;-2.384;2022-11-15T21:03:29;7.20;99.90
65048;DHT22;52089;51.362;-2.384;2022-11-15T21:07:11;7.20;99.90
65048;DHT22;52089;51.362;-2.384;2022-11-15T21:10:53;7.20;99.90
65048;DHT22;52089;51.362;-2.384;2022-11-15T21:14:53;7.20;99.90
65048;DHT22;52089;51.362;-2.384;2022-11-15T21:18:35;7.20;99.90
65048;DHT22;52089;51.362;-2.384;2022-11-15T21:22:17;7.20;99.90
65048;DHT22;52089;51.362;-2.384;2022-11-15T21:25:59;7.20;99.90
65048;DHT22;52089;51.362;-2.384;2022-11-15T21:29:41;7.30;99.90
65048;DHT22;52089;51.362;-2.384;2022-11-15T21:33:26;7.30;99.90
65048;DHT22;52089;51.362;-2.384;2022-11-15T21:37:08;7.30;99.90
65048;DHT22;52089;51.362;-2.384;2022-11-15T21:40:51;7.20;99.90
65048;DHT22;52089;51.362;-2.384;2022-11-15T21:44:33;7.20;99.90
65048;DHT22;52089;51.362;-2.384;2022-11-15T21:48:15;7.20;99.90
65048;DHT22;52089;51.362;-2.384;2022-11-15T21:51:59;7.20;99.90
65048;DHT22;52089;51.362;-2.384;2022-11-15T21:55:42;7.20;99.90
65048;DHT22;52089;51.362;-2.384;2022-11-15T21:59:23;7.30;99.90
65048;DHT22;52089;51.362;-2.384;2022-11-15T22:03:05;7.30;99.90
65048;DHT22;52089;51.362;-2.384;2022-11-15T22:06:47;7.30;99.90
65048;DHT22;52089;51.362;-2.384;2022-11-15T22:10:29;7.30;99.90
65048;DHT22;52089;51.362;-2.384;2022-11-15T22:14:10;7.30;99.90
65048;DHT22;52089;51.362;-2.384;2022-11-15T22:17:52;7.30;99.90
65048;DHT22;52089;51.362;-2.384;2022-11-15T22:21:40;7.30;99.90
65048;DHT22;52089;51.362;-2.384;2022-11-15T22:25:22;7.30;99.90
65048;DHT22;52089;51.362;-2.384;2022-11-15T22:29:04;7.40;99.90
65048;DHT22;52089;51.362;-2.384;2022-11-15T22:32:47;7.40;99.90
65048;DHT22;52089;51.362;-2.384;2022-11-15T22:36:29;7.40;99.90
65048;DHT22;52089;51.362;-2.384;2022-11-15T22:40:31;7.50;99.90
65048;DHT22;52089;51.362;-2.384;2022-11-15T22:44:13;7.40;99.90
65048;DHT22;52089;51.362;-2.384;2022-11-15T22:47:54;7.40;99.90
65048;DHT22;52089;51.362;-2.384;2022-11-15T22:51:37;7.40;99.90
65048;DHT22;52089;51.362;-2.384;2022-11-15T22:55:21;7.40;99.90
65048;DHT22;52089;51.362;-2.384;2022-11-15T22:59:02;7.30;99.90
65048;DHT22;52089;51.362;-2.384;2022-11-15T23:02:44;7.20;99.90
65048;DHT22;52089;51.362;-2.384;2022-11-15T23:06:26;7.20;99.90
65048;DHT22;52089;51.362;-2.384;2022-11-15T23:10:08;7.10;99.90
65048;DHT22;52089;51.362;-2.384;2022-11-15T23:14:09;7.10;99.90
65048;DHT22;52089;51.362;-2.384;2022-11-15T23:17:52;7.00;99.90
65048;DHT22;52089;51.362;-2.384;2022-11-15T23:21:37;6.90;99.90
65048;DHT22;52089;51.362;-2.384;2022-11-15T23:25:38;7.00;99.90
65048;DHT22;52089;51.362;-2.384;2022-11-15T23:29:21;6.90;99.90
65048;DHT22;52089;51.362;-2.384;2022-11-15T23:33:04;6.80;99.90
65048;DHT22;52089;51.362;-2.384;2022-11-15T23:37:05;6.90;99.90
65048;DHT22;52089;51.362;-2.384;2022-11-15T23:40:51;6.90;99.90
65048;DHT22;52089;51.362;-2.384;2022-11-15T23:44:33;6.80;99.90
65048;DHT22;52089;51.362;-2.384;2022-11-15T23:48:15;6.80;99.90
65048;DHT22;52089;51.362;-2.384;2022-11-15T23:51:57;6.80;99.90
65048;DHT22;52089;51.362;-2.384;2022-11-15T23:55:38;6.80;99.90
65048;DHT22;52089;51.362;-2.384;2022-11-15T23:59:21;6.90;99.90
